sensor_id;sensor_type;location;lat;lon;timestamp;temperature;humidity
20740;DHT22;10530;49.968;19.844;2022-11-15T00:02:26;4.80;99.90
20740;DHT22;10530;49.968;19.844;2022-11-15T00:07:48;4.70;99.90
20740;DHT22;10530;49.968;19.844;2022-11-15T00:13:15;4.60;99.90
20740;DHT22;10530;49.968;19.844;2022-11-15T00:18:37;4.50;99.90
20740;DHT22;10530;49.968;19.844;2022-11-15T00:23:59;4.60;99.90
20740;DHT22;10530;49.968;19.844;2022-11-15T00:29:20;4.60;99.90
20740;DHT22;10530;49.968;19.844;2022-11-15T00:34:41;4.50;99.90
20740;DHT22;10530;49.968;19.844;2022-11-15T00:40:03;4.60;99.90
20740;DHT22;10530;49.968;19.844;2022-11-15T00:45:25;4.50;99.90
20740;DHT22;10530;49.968;19.844;2022-11-15T00:50:46;4.40;99.90
20740;DHT22;10530;49.968;19.844;2022-11-15T00:56:07;4.40;99.90
20740;DHT22;10530;49.968;19.844;2022-11-15T01:01:29;4.40;99.90
20740;DHT22;10530;49.968;19.844;2022-11-15T01:06:50;4.40;99.90
20740;DHT22;10530;49.968;19.844;2022-11-15T01:12:12;4.30;99.90
20740;DHT22;10530;49.968;19.844;2022-11-15T01:17:33;4.30;99.90
20740;DHT22;10530;49.968;19.844;2022-11-15T01:22:54;4.20;99.90
20740;DHT22;10530;49.968;19.844;2022-11-15T01:28:15;4.20;99.90
20740;DHT22;10530;49.968;19.844;2022-11-15T01:33:37;4.30;99.90
20740;DHT22;10530;49.968;19.844;2022-11-15T01:38:58;4.30;99.90
20740;DHT22;10530;49.968;19.844;2022-11-15T01:44:47;4.20;99.90
20740;DHT22;10530;49.968;19.844;2022-11-15T01:50:16;4.20;99.90
20740;DHT22;10530;49.968;19.844;2022-11-15T01:55:38;4.20;99.90
20740;DHT22;10530;49.968;19.844;2022-11-15T02:00:59;4.10;99.90
20740;DHT22;10530;49.968;19.844;2022-11-15T02:06:21;4.20;99.90
20740;DHT22;10530;49.968;19.844;2022-11-15T02:11:44;4.10;99.90
20740;DHT22;10530;49.968;19.844;2022-11-15T02:17:11;4.10;99.90
20740;DHT22;10530;49.968;19.844;2022-11-15T02:39:44;3.80;99.90
20740;DHT22;10530;49.968;19.844;2022-11-15T02:45:11;3.90;99.90
20740;DHT22;10530;49.968;19.844;2022-11-15T02:50:34;3.80;99.90
20740;DHT22;10530;49.968;19.844;2022-11-15T02:55:56;3.80;99.90
20740;DHT22;10530;49.968;19.844;2022-11-15T03:12:34;3.70;99.90
20740;DHT22;10530;49.968;19.844;2022-11-15T03:18:04;3.70;99.90
20740;DHT22;10530;49.968;19.844;2022-11-15T03:23:29;3.60;99.90
20740;DHT22;10530;49.968;19.844;2022-11-15T03:29:03;3.40;99.90
20740;DHT22;10530;49.968;19.844;2022-11-15T03:34:26;3.50;99.90
20740;DHT22;10530;49.968;19.844;2022-11-15T03:39:48;3.40;99.90
20740;DHT22;10530;49.968;19.844;2022-11-15T03:46:20;3.30;99.90
20740;DHT22;10530;49.968;19.844;2022-11-15T03:51:08;3.20;99.90
20740;DHT22;10530;49.968;19.844;2022-11-15T03:56:30;3.10;99.90
20740;DHT22;10530;49.968;19.844;2022-11-15T04:01:51;3.10;99.90
20740;DHT22;10530;49.968;19.844;2022-11-15T04:07:13;3.10;99.90
20740;DHT22;10530;49.968;19.844;2022-11-15T04:12:40;3.10;99.90
20740;DHT22;10530;49.968;19.844;2022-11-15T04:18:04;3.10;99.90
20740;DHT22;10530;49.968;19.844;2022-11-15T04:23:24;3.00;99.90
20740;DHT22;10530;49.968;19.844;2022-11-15T04:29:04;3.10;99.90
20740;DHT22;10530;49.968;19.844;2022-11-15T04:34:44;3.10;99.90
20740;DHT22;10530;49.968;19.844;2022-11-15T04:40:07;3.00;99.90
20740;DHT22;10530;49.968;19.844;2022-11-15T04:45:28;2.80;99.90
20740;DHT22;10530;49.968;19.844;2022-11-15T04:50:49;2.80;99.90
20740;DHT22;10530;49.968;19.844;2022-11-15T04:56:10;2.70;99.90
20740;DHT22;10530;49.968;19.844;2022-11-15T05:01:32;2.70;99.90
20740;DHT22;10530;49.968;19.844;2022-11-15T05:06:53;2.70;99.90
20740;DHT22;10530;49.968;19.844;2022-11-15T05:12:15;2.70;99.90
20740;DHT22;10530;49.968;19.844;2022-11-15T05:17:36;2.70;99.90
20740;DHT22;10530;49.968;19.844;2022-11-15T05:22:58;2.70;99.90
20740;DHT22;10530;49.968;19.844;2022-11-15T05:28:19;2.70;99.90
20740;DHT22;10530;49.968;19.844;2022-11-15T05:33:41;2.60;99.90
20740;DHT22;10530;49.968;19.844;2022-11-15T05:39:05;2.60;99.90
20740;DHT22;10530;49.968;19.844;2022-11-15T05:44:30;2.50;99.90
20740;DHT22;10530;49.968;19.844;2022-11-15T05:49:52;2.40;99.90
20740;DHT22;10530;49.968;19.844;2022-11-15T05:55:14;2.30;99.90
20740;DHT22;10530;49.968;19.844;2022-11-15T06:00:36;2.30;99.90
20740;DHT22;10530;49.968;19.844;2022-11-15T06:05:57;2.20;99.90
20740;DHT22;10530;49.968;19.844;2022-11-15T06:11:18;2.00;99.90
20740;DHT22;10530;49.968;19.844;2022-11-15T06:16:39;2.10;99.90
20740;DHT22;10530;49.968;19.844;2022-11-15T06:22:01;2.20;99.90
20740;DHT22;10530;49.968;19.844;2022-11-15T06:27:23;2.10;99.90
20740;DHT22;10530;49.968;19.844;2022-11-15T06:32:44;2.00;99.90
20740;DHT22;10530;49.968;19.844;2022-11-15T06:38:07;2.10;99.90
20740;DHT22;10530;49.968;19.844;2022-11-15T06:43:29;2.40;99.90
20740;DHT22;10530;49.968;19.844;2022-11-15T06:48:51;2.90;99.90
20740;DHT22;10530;49.968;19.844;2022-11-15T06:54:13;3.50;99.90
20740;DHT22;10530;49.968;19.844;2022-11-15T06:59:34;4.60;99.90
20740;DHT22;10530;49.968;19.844;2022-11-15T07:05:00;4.50;99.90
20740;DHT22;10530;49.968;19.844;2022-11-15T07:10:22;4.10;99.90
20740;DHT22;10530;49.968;19.844;2022-11-15T07:15:45;4.60;99.90
20740;DHT22;10530;49.968;19.844;2022-11-15T07:21:09;5.90;99.90
20740;DHT22;10530;49.968;19.844;2022-11-15T07:26:30;7.50;99.90
20740;DHT22;10530;49.968;19.844;2022-11-15T07:31:51;8.30;99.90
20740;DHT22;10530;49.968;19.844;2022-11-15T07:37:13;6.80;99.90
20740;DHT22;10530;49.968;19.844;2022-11-15T07:42:34;6.90;99.90
20740;DHT22;10530;49.968;19.844;2022-11-15T07:48:13;6.70;99.90
20740;DHT22;10530;49.968;19.844;2022-11-15T07:53:35;6.60;99.90
20740;DHT22;10530;49.968;19.844;2022-11-15T07:58:56;5.60;99.90
20740;DHT22;10530;49.968;19.844;2022-11-15T08:04:18;5.40;99.90
20740;DHT22;10530;49.968;19.844;2022-11-15T08:09:39;5.00;99.90
20740;DHT22;10530;49.968;19.844;2022-11-15T08:15:00;5.00;99.90
20740;DHT22;10530;49.968;19.844;2022-11-15T08:20:21;4.90;99.90
20740;DHT22;10530;49.968;19.844;2022-11-15T08:25:43;5.70;99.90
20740;DHT22;10530;49.968;19.844;2022-11-15T08:31:04;6.20;99.90
20740;DHT22;10530;49.968;19.844;2022-11-15T08:36:25;6.20;99.90
20740;DHT22;10530;49.968;19.844;2022-11-15T08:41:52;6.30;99.90
20740;DHT22;10530;49.968;19.844;2022-11-15T08:47:13;6.20;99.90
20740;DHT22;10530;49.968;19.844;2022-11-15T08:52:34;6.20;99.90
20740;DHT22;10530;49.968;19.844;2022-11-15T08:57:57;6.10;99.90
20740;DHT22;10530;49.968;19.844;2022-11-15T09:03:19;6.40;99.90
20740;DHT22;10530;49.968;19.844;2022-11-15T09:08:40;6.10;99.90
20740;DHT22;10530;49.968;19.844;2022-11-15T09:14:14;6.40;99.90
20740;DHT22;10530;49.968;19.844;2022-11-15T09:19:35;6.80;99.90
20740;DHT22;10530;49.968;19.844;2022-11-15T09:24:58;7.80;99.90
20740;DHT22;10530;49.968;19.844;2022-11-15T09:30:19;8.50;99.90
20740;DHT22;10530;49.968;19.844;2022-11-15T09:35:40;9.00;99.90
20740;DHT22;10530;49.968;19.844;2022-11-15T09:52:19;6.60;99.90
20740;DHT22;10530;49.968;19.844;2022-11-15T09:57:27;6.60;99.90
20740;DHT22;10530;49.968;19.844;2022-11-15T10:13:26;7.40;99.90
20740;DHT22;10530;49.968;19.844;2022-11-15T10:18:44;7.20;99.90
20740;DHT22;10530;49.968;19.844;2022-11-15T10:23:50;7.20;99.90
20740;DHT22;10530;49.968;19.844;2022-11-15T10:28:55;7.50;99.90
20740;DHT22;10530;49.968;19.844;2022-11-15T10:34:16;9.30;99.90
20740;DHT22;10530;49.968;19.844;2022-11-15T10:39:21;13.30;99.90
20740;DHT22;10530;49.968;19.844;2022-11-15T10:49:30;16.00;99.90
20740;DHT22;10530;49.968;19.844;2022-11-15T10:54:43;17.80;99.90
20740;DHT22;10530;49.968;19.844;2022-11-15T10:59:49;18.30;99.90
20740;DHT22;10530;49.968;19.844;2022-11-15T11:04:53;18.60;97.80
20740;DHT22;10530;49.968;19.844;2022-11-15T11:15:29;19.30;89.70
20740;DHT22;10530;49.968;19.844;2022-11-15T11:28:47;17.80;83.90
20740;DHT22;10530;49.968;19.844;2022-11-15T11:34:00;16.50;96.10
20740;DHT22;10530;49.968;19.844;2022-11-15T11:49:46;14.50;99.90
20740;DHT22;10530;49.968;19.844;2022-11-15T11:54:59;13.60;99.90
20740;DHT22;10530;49.968;19.844;2022-11-15T12:05:26;12.40;99.90
20740;DHT22;10530;49.968;19.844;2022-11-15T12:10:32;12.10;99.90
20740;DHT22;10530;49.968;19.844;2022-11-15T12:15:42;11.80;99.90
20740;DHT22;10530;49.968;19.844;2022-11-15T12:21:01;11.80;99.90
20740;DHT22;10530;49.968;19.844;2022-11-15T12:26:16;11.70;99.90
20740;DHT22;10530;49.968;19.844;2022-11-15T12:31:38;11.60;99.90
20740;DHT22;10530;49.968;19.844;2022-11-15T12:36:45;11.60;99.90
20740;DHT22;10530;49.968;19.844;2022-11-15T12:47:24;11.60;99.90
20740;DHT22;10530;49.968;19.844;2022-11-15T12:52:25;11.40;99.90
20740;DHT22;10530;49.968;19.844;2022-11-15T12:57:30;11.40;99.90
20740;DHT22;10530;49.968;19.844;2022-11-15T13:02:36;11.30;99.90
20740;DHT22;10530;49.968;19.844;2022-11-15T13:17:53;10.80;99.90
20740;DHT22;10530;49.968;19.844;2022-11-15T13:23:07;10.90;99.90
20740;DHT22;10530;49.968;19.844;2022-11-15T13:33:35;10.90;99.90
20740;DHT22;10530;49.968;19.844;2022-11-15T13:38:39;10.90;99.90
20740;DHT22;10530;49.968;19.844;2022-11-15T13:43:42;10.90;99.90
20740;DHT22;10530;49.968;19.844;2022-11-15T13:48:52;10.80;99.90
20740;DHT22;10530;49.968;19.844;2022-11-15T13:59:25;10.70;99.90
20740;DHT22;10530;49.968;19.844;2022-11-15T14:04:29;10.60;99.90
20740;DHT22;10530;49.968;19.844;2022-11-15T14:09:39;10.60;99.90
20740;DHT22;10530;49.968;19.844;2022-11-15T14:14:46;10.60;99.90
20740;DHT22;10530;49.968;19.844;2022-11-15T14:19:49;10.60;99.90
20740;DHT22;10530;49.968;19.844;2022-11-15T14:25:18;10.50;99.90
20740;DHT22;10530;49.968;19.844;2022-11-15T14:30:21;10.50;99.90
20740;DHT22;10530;49.968;19.844;2022-11-15T14:35:24;10.50;99.90
20740;DHT22;10530;49.968;19.844;2022-11-15T14:40:27;10.40;99.90
20740;DHT22;10530;49.968;19.844;2022-11-15T14:45:30;10.20;99.90
20740;DHT22;10530;49.968;19.844;2022-11-15T14:50:33;9.90;99.90
20740;DHT22;10530;49.968;19.844;2022-11-15T14:55:37;9.80;99.90
20740;DHT22;10530;49.968;19.844;2022-11-15T15:00:40;9.80;99.90
20740;DHT22;10530;49.968;19.844;2022-11-15T15:05:43;9.80;99.90
20740;DHT22;10530;49.968;19.844;2022-11-15T15:10:46;9.80;99.90
20740;DHT22;10530;49.968;19.844;2022-11-15T15:15:50;9.50;99.90
20740;DHT22;10530;49.968;19.844;2022-11-15T15:20:56;9.60;99.90
20740;DHT22;10530;49.968;19.844;2022-11-15T15:26:02;9.40;99.90
20740;DHT22;10530;49.968;19.844;2022-11-15T15:31:05;9.40;99.90
20740;DHT22;10530;49.968;19.844;2022-11-15T15:36:12;9.50;99.90
20740;DHT22;10530;49.968;19.844;2022-11-15T15:41:16;9.50;99.90
20740;DHT22;10530;49.968;19.844;2022-11-15T15:46:20;9.30;99.90
20740;DHT22;10530;49.968;19.844;2022-11-15T15:51:23;9.20;99.90
20740;DHT22;10530;49.968;19.844;2022-11-15T15:56:25;9.20;99.90
20740;DHT22;10530;49.968;19.844;2022-11-15T16:01:30;9.20;99.90
20740;DHT22;10530;49.968;19.844;2022-11-15T16:06:35;9.20;99.90
20740;DHT22;10530;49.968;19.844;2022-11-15T16:11:38;9.20;99.90
20740;DHT22;10530;49.968;19.844;2022-11-15T16:16:41;9.20;99.90
20740;DHT22;10530;49.968;19.844;2022-11-15T16:21:44;9.10;99.90
20740;DHT22;10530;49.968;19.844;2022-11-15T16:26:47;9.00;99.90
20740;DHT22;10530;49.968;19.844;2022-11-15T16:31:50;9.00;99.90
20740;DHT22;10530;49.968;19.844;2022-11-15T16:36:54;9.10;99.90
20740;DHT22;10530;49.968;19.844;2022-11-15T16:42:03;9.10;99.90
20740;DHT22;10530;49.968;19.844;2022-11-15T16:47:15;9.10;99.90
20740;DHT22;10530;49.968;19.844;2022-11-15T16:52:18;9.10;99.90
20740;DHT22;10530;49.968;19.844;2022-11-15T16:57:22;9.10;99.90
20740;DHT22;10530;49.968;19.844;2022-11-15T17:02:25;9.00;99.90
20740;DHT22;10530;49.968;19.844;2022-11-15T17:07:28;9.00;99.90
20740;DHT22;10530;49.968;19.844;2022-11-15T17:12:31;8.90;99.90
20740;DHT22;10530;49.968;19.844;2022-11-15T17:17:34;8.80;99.90
20740;DHT22;10530;49.968;19.844;2022-11-15T17:22:37;8.80;99.90
20740;DHT22;10530;49.968;19.844;2022-11-15T17:27:40;8.90;99.90
20740;DHT22;10530;49.968;19.844;2022-11-15T17:32:43;8.90;99.90
20740;DHT22;10530;49.968;19.844;2022-11-15T17:37:46;8.70;99.90
20740;DHT22;10530;49.968;19.844;2022-11-15T17:42:49;8.60;99.90
20740;DHT22;10530;49.968;19.844;2022-11-15T17:47:52;8.70;99.90
20740;DHT22;10530;49.968;19.844;2022-11-15T17:52:55;8.60;99.90
20740;DHT22;10530;49.968;19.844;2022-11-15T17:58:00;8.70;99.90
20740;DHT22;10530;49.968;19.844;2022-11-15T18:03:02;8.60;99.90
20740;DHT22;10530;49.968;19.844;2022-11-15T18:08:05;8.50;99.90
20740;DHT22;10530;49.968;19.844;2022-11-15T18:13:15;8.60;99.90
20740;DHT22;10530;49.968;19.844;2022-11-15T18:18:18;8.70;99.90
20740;DHT22;10530;49.968;19.844;2022-11-15T18:23:21;8.70;99.90
20740;DHT22;10530;49.968;19.844;2022-11-15T18:28:32;8.60;99.90
20740;DHT22;10530;49.968;19.844;2022-11-15T18:33:36;8.70;99.90
20740;DHT22;10530;49.968;19.844;2022-11-15T18:38:39;8.60;99.90
20740;DHT22;10530;49.968;19.844;2022-11-15T18:43:43;8.50;99.90
20740;DHT22;10530;49.968;19.844;2022-11-15T18:48:47;8.60;99.90
20740;DHT22;10530;49.968;19.844;2022-11-15T18:53:53;8.60;99.90
20740;DHT22;10530;49.968;19.844;2022-11-15T18:58:58;8.60;99.90
20740;DHT22;10530;49.968;19.844;2022-11-15T19:04:27;8.80;99.90
20740;DHT22;10530;49.968;19.844;2022-11-15T19:09:30;8.60;99.90
20740;DHT22;10530;49.968;19.844;2022-11-15T19:14:34;8.70;99.90
20740;DHT22;10530;49.968;19.844;2022-11-15T19:19:37;8.70;99.90
20740;DHT22;10530;49.968;19.844;2022-11-15T19:24:40;8.70;99.90
20740;DHT22;10530;49.968;19.844;2022-11-15T19:29:42;8.70;99.90
20740;DHT22;10530;49.968;19.844;2022-11-15T19:34:45;8.80;99.90
20740;DHT22;10530;49.968;19.844;2022-11-15T19:39:48;8.70;99.90
20740;DHT22;10530;49.968;19.844;2022-11-15T19:44:51;8.70;99.90
20740;DHT22;10530;49.968;19.844;2022-11-15T19:49:54;8.70;99.90
20740;DHT22;10530;49.968;19.844;2022-11-15T19:54:57;8.60;99.90
20740;DHT22;10530;49.968;19.844;2022-11-15T20:00:00;8.60;99.90
20740;DHT22;10530;49.968;19.844;2022-11-15T20:05:08;8.60;99.90
20740;DHT22;10530;49.968;19.844;2022-11-15T20:10:19;8.60;99.90
20740;DHT22;10530;49.968;19.844;2022-11-15T20:15:22;8.50;99.90
20740;DHT22;10530;49.968;19.844;2022-11-15T20:20:25;8.40;99.90
20740;DHT22;10530;49.968;19.844;2022-11-15T20:25:28;8.40;99.90
20740;DHT22;10530;49.968;19.844;2022-11-15T20:30:32;8.30;99.90
20740;DHT22;10530;49.968;19.844;2022-11-15T20:35:35;8.40;99.90
20740;DHT22;10530;49.968;19.844;2022-11-15T20:40:39;8.40;99.90
20740;DHT22;10530;49.968;19.844;2022-11-15T20:45:44;8.40;99.90
20740;DHT22;10530;49.968;19.844;2022-11-15T20:50:48;8.40;99.90
20740;DHT22;10530;49.968;19.844;2022-11-15T20:55:51;8.40;99.90
20740;DHT22;10530;49.968;19.844;2022-11-15T21:00:55;8.40;99.90
20740;DHT22;10530;49.968;19.844;2022-11-15T21:05:58;8.40;99.90
20740;DHT22;10530;49.968;19.844;2022-11-15T21:11:02;8.30;99.90
20740;DHT22;10530;49.968;19.844;2022-11-15T21:16:23;8.30;99.90
20740;DHT22;10530;49.968;19.844;2022-11-15T21:21:26;8.40;99.90
20740;DHT22;10530;49.968;19.844;2022-11-15T21:26:29;8.40;99.90
20740;DHT22;10530;49.968;19.844;2022-11-15T21:31:32;8.40;99.90
20740;DHT22;10530;49.968;19.844;2022-11-15T21:36:35;8.30;99.90
20740;DHT22;10530;49.968;19.844;2022-11-15T21:41:38;8.30;99.90
20740;DHT22;10530;49.968;19.844;2022-11-15T21:46:41;8.40;99.90
20740;DHT22;10530;49.968;19.844;2022-11-15T21:51:43;8.30;99.90
20740;DHT22;10530;49.968;19.844;2022-11-15T21:56:46;8.30;99.90
20740;DHT22;10530;49.968;19.844;2022-11-15T22:01:49;8.20;99.90
20740;DHT22;10530;49.968;19.844;2022-11-15T22:07:10;8.20;99.90
20740;DHT22;10530;49.968;19.844;2022-11-15T22:12:13;8.20;99.90
20740;DHT22;10530;49.968;19.844;2022-11-15T22:17:16;8.30;99.90
20740;DHT22;10530;49.968;19.844;2022-11-15T22:22:19;8.30;99.90
20740;DHT22;10530;49.968;19.844;2022-11-15T22:27:22;8.30;99.90
20740;DHT22;10530;49.968;19.844;2022-11-15T22:32:24;8.20;99.90
20740;DHT22;10530;49.968;19.844;2022-11-15T22:37:27;8.30;99.90
20740;DHT22;10530;49.968;19.844;2022-11-15T22:42:30;8.30;99.90
20740;DHT22;10530;49.968;19.844;2022-11-15T22:47:33;8.30;99.90
20740;DHT22;10530;49.968;19.844;2022-11-15T22:52:36;8.20;99.90
20740;DHT22;10530;49.968;19.844;2022-11-15T22:57:39;8.10;99.90
20740;DHT22;10530;49.968;19.844;2022-11-15T23:02:42;8.10;99.90
20740;DHT22;10530;49.968;19.844;2022-11-15T23:07:45;8.30;99.90
20740;DHT22;10530;49.968;19.844;2022-11-15T23:12:48;8.30;99.90
20740;DHT22;10530;49.968;19.844;2022-11-15T23:18:09;8.30;99.90
20740;DHT22;10530;49.968;19.844;2022-11-15T23:23:12;8.30;99.90
20740;DHT22;10530;49.968;19.844;2022-11-15T23:28:15;8.30;99.90
20740;DHT22;10530;49.968;19.844;2022-11-15T23:33:17;8.20;99.90
20740;DHT22;10530;49.968;19.844;2022-11-15T23:38:38;8.20;99.90
20740;DHT22;10530;49.968;19.844;2022-11-15T23:43:42;8.30;99.90
20740;DHT22;10530;49.968;19.844;2022-11-15T23:48:45;8.20;99.90
20740;DHT22;10530;49.968;19.844;2022-11-15T23:53:47;8.20;99.90
20740;DHT22;10530;49.968;19.844;2022-11-15T23:58:50;8.10;99.90
